AirNav   Air Wisconsin Up To $57,000 Bonus
 
 1196 users online  

CO05 Aurora Presbyterian Hospital Heliport
Aurora, Colorado, USA

GOING TO AURORA?


FAA INFORMATION EFFECTIVE 06 OCTOBER 2022

Location

FAA Identifier: CO05
Lat/Long: 39-43-38.4000N 104-49-36.1100W
39-43.640000N 104-49.601833W
39.7273333,-104.8266972
(estimated)
Elevation: 5415 ft. / 1650 m (estimated)
Variation: 11E (1985)
Time zone: UTC -6 (UTC -7 during Standard Time)
Zip code: 80011

Heliport Operations

Heliport use: Private use, MEDICAL USE.
Activation date: 04/1971
Control tower: no
ARTCC: DENVER CENTER
FSS: DENVER FLIGHT SERVICE STATION
Attendance: CONTINUOUS
Wind indicator: yes
Segmented circle: no
Lights: SS-SR

Heliport Communications

WX ASOS at APA (9 nm S): PHONE 720-873-2799
WX ASOS at DEN (11 nm NE): PHONE 303-342-1920
WX AWOS-3 at CFO (14 nm E): 119.025 (303-261-9104)
WX AWOS-3 at BJC (17 nm NW): PHONE 720-887-8067
WX AWOS-3 at EIK (20 nm NW): 133.825 (303-604-4339)

Nearby radio navigation aids

VOR radial/distance  VOR name  Freq  Var
DENr228/9.2DENVER VOR/DME117.9008E
FQFr272/9.8FALCON VORTAC116.3011E
DVVr215/13.7MILE HIGH VORTAC114.7008E
BJCr117/18.2JEFFCO VOR/DME115.4011E

Heliport Services

Runway Information

Helipad H1

Dimensions: 60 x 60 ft. / 18 x 18 m
Surface: concrete
Runway edge lights: PERI
Latitude: 39-43.640000N
Longitude: 104-49.601833W
Elevation: 5415.0 ft.
Traffic pattern: leftleft

Heliport Ownership and Management from official FAA records

Ownership: Privately-owned
Owner: P/SL HEALTHCARE SYSTEM
14200 E ARAPHOE RD
ENGLEWOOD, CO 80112
Phone 303-699-3000
Manager: DR. JAMES C. MC SHANE
14200 E ARAPHOE RD
ENGLEWOOD, CO 80112
Phone 303-699-3055

Heliport Operational Statistics

Aircraft based on the field: 2
Helicopters: 2
    

Additional Remarks

A52-H1 LGT POLES W; BLDG N; HANGAR BLDG NE (ALL LGTD); PLINE S 600 FT FM THR.
FOR CD CTC DENVER APCH AT 303-342-1916.

Instrument Procedures

There are no published instrument procedures at CO05.

Some nearby airports with instrument procedures:

KBKF - Buckley Space Force Base (4 nm SE)
KAPA - Centennial Airport (9 nm S)
KDEN - Denver International Airport (11 nm NE)
KCFO - Colorado Air and Space Port Airport (14 nm E)
KBJC - Rocky Mountain Metro Airport (17 nm NW)
KEIK - Erie Municipal Airport (20 nm NW)
 
Loc | Ops | Rwys | IFR | FBO | Links
Com | Nav | Svcs | Stats | Notes

AirBoss

 
Area around CO05 (Aurora Presbyterian Hospital Heliport)
 
Road maps at: MapQuest Bing Google
 
Aerial photo
No photo
 
Sectional chart

 
Airport distance calculator
Flying to Aurora Presbyterian Hospital Heliport? Find the distance to fly.

From to CO05

Sunrise and sunset
Times for 06-Oct-2022
 Local
(UTC-6)
 Zulu
(UTC)
Morning civil twilight06:3412:34
Sunrise07:0113:01
Sunset18:3300:33
Evening civil twilight19:0001:00

Current date and time
Zulu (UTC)  06-Oct-2022 12:53:11
Local (UTC-6)  06-Oct-2022 06:53:11
 
METAR
KBKF 
4nm E 
061158Z 19006KT 10SM CLR 06/03 A3038 RMK AO2A SLP252 T00610033 10090 20059 53002
KAPA 
10nm S 
061153Z 00000KT 10SM CLR 06/03 A3038 RMK AO2 SLP262 T00560028 10100 20056 53001
KDEN 
10nm NE 
061153Z 23006KT 10SM CLR 08/04 A3036 RMK AO2 SLP238 T00830039 10106 20072 53000
KCFO 
14nm E 
061235Z AUTO 22006KT 10SM CLR 09/03 A3038 RMK AO2 T00900030
KBJC 
18nm NW 
061150Z 00000KT 10SM SKC 09/02 A3038
KEIK 
20nm NW 
061235Z AUTO 20003KT 10SM CLR 04/03 A3036 RMK AO2 T00440030 PWINO
TAF
KBKF 
4nm E 
060900Z 0609/0715 VRB06KT 9999 SKC 510033 QNH3030INS BECMG 0712/0713 VRB06KT 8000 BR OVC003 510033 QNH3043INS TX19/0622Z TN06/0712Z
KAPA 
10nm S 
061128Z 0612/0712 15006KT P6SM FEW200 FM061500 25006KT P6SM SCT200 FM061800 10007KT P6SM SCT200 FM070200 14010KT P6SM SCT100 BKN200 FM070800 24006KT P6SM SCT040 BKN150 FM071100 33007KT P6SM BKN025
KDEN 
10nm NE 
061128Z 0612/0718 24006KT P6SM FEW200 FM061800 10008KT P6SM SCT200 FM070200 11012KT P6SM SCT100 BKN200 FM070700 07012KT P6SM SCT040 BKN150 FM071100 05010KT P6SM BKN025
KBJC 
18nm NW 
061128Z 0612/0712 VRB05KT P6SM FEW200 FM061800 10008KT P6SM SCT200 FM070200 34007KT P6SM SCT100 BKN200 FM071100 36007KT P6SM BKN025
NOTAMs
Click for the latest NOTAMs
NOTAMs are issued by the DoD/FAA and will open in a separate window not controlled by AirNav.

 

 
 

Would you like to see your business listed on this page?

 If your business provides an interesting product or service to pilots, flight crews, aircraft, or users of the Aurora Presbyterian Hospital Heliport, you should consider listing it here.  To start the listing process, click on the button below
 
Add a business
 

Other Pages about Aurora Presbyterian Hospital Heliport

Update a link
 
Copyright © AirNav, LLC. All rights reserved. Privacy Policy  Contact